Time;durP1;ratioP1;P1;durP2;ratioP2;P2;SDS_P1;SDS_P2;PMS_P1;PMS_P2;Temp;Humidity;BMP_temperature;BMP_pressure;BME280_temperature;BME280_humidity;BME280_pressure;Samples;Min_cycle;Max_cycle;Signal;HPM_P1;HPM_P2
2021/11/14 00:02:05;;;;;;;14.05;7.95;;;14.80;99.90;;;15.03;84.22;101636.44;5053633;28;20556;-65
2021/11/14 00:04:34;;;;;;;15.80;8.57;;;14.70;99.90;;;15.13;84.04;101643.44;5053608;28;20041;-66
2021/11/14 00:07:03;;;;;;;20.25;9.30;;;14.80;99.90;;;14.78;83.88;101593.19;5054160;28;20044;-67
2021/11/14 00:09:33;;;;;;;18.73;8.52;;;14.80;99.90;;;15.06;84.11;101653.28;5069243;28;20044;-66
2021/11/14 00:12:02;;;;;;;14.38;9.43;;;14.70;99.90;;;14.66;83.73;101590.63;5053769;28;20037;-66
2021/11/14 00:14:30;;;;;;;16.30;9.85;;;14.80;99.90;;;15.01;83.91;101647.13;5053450;28;20120;-66
2021/11/14 00:16:59;;;;;;;21.17;9.50;;;14.70;99.90;;;15.05;83.77;101651.53;5053392;28;20045;-66
2021/11/14 00:19:28;;;;;;;14.52;9.07;;;14.70;99.90;;;15.08;83.84;101658.59;5053373;28;20052;-63
2021/11/14 00:21:56;;;;;;;15.65;9.82;;;14.80;99.90;;;15.06;83.48;101641.75;5052310;28;20063;-65
2021/11/14 00:24:25;;;;;;;17.77;9.45;;;14.70;99.90;;;14.97;83.52;101648.03;5053292;28;20076;-65
2021/11/14 00:26:56;;;;;;;12.60;9.07;;;14.70;99.90;;;15.02;83.55;101666.66;5068921;28;20048;-67
2021/11/14 00:29:24;;;;;;;14.50;8.50;;;14.70;99.90;;;15.07;83.56;101664.81;5053363;28;20092;-67
2021/11/14 00:31:52;;;;;;;14.65;8.85;;;14.70;99.90;;;14.89;83.32;101630.34;5068874;28;20144;-64
2021/11/14 00:34:21;;;;;;;14.60;8.35;;;14.70;99.90;;;15.06;83.37;101671.06;5053640;28;20037;-66
2021/11/14 00:36:53;;;;;;;17.02;9.30;;;14.70;99.90;;;15.03;83.26;101679.97;5053069;28;20542;-66
2021/11/14 00:39:21;;;;;;;16.00;9.45;;;14.70;99.90;;;15.06;83.07;101674.59;5053068;28;20048;-66
2021/11/14 00:41:50;;;;;;;14.27;9.13;;;14.70;99.90;;;15.02;82.83;101678.19;5052861;28;20442;-66
2021/11/14 00:44:20;;;;;;;12.50;9.20;;;14.60;99.90;;;15.06;82.80;101677.25;5053372;28;20430;-66
2021/11/14 00:46:49;;;;;;;17.15;9.98;;;14.70;99.90;;;14.89;82.75;101641.91;5053249;28;20045;-66
2021/11/14 00:49:18;;;;;;;16.42;9.48;;;14.70;99.90;;;14.80;82.80;101633.13;5051956;28;20052;-66
2021/11/14 00:51:47;;;;;;;14.50;10.15;;;14.70;99.90;;;15.05;82.88;101677.28;5052954;28;20049;-66
2021/11/14 00:54:16;;;;;;;15.98;9.85;;;14.70;99.90;;;15.06;82.88;101671.06;5053199;28;20458;-66
2021/11/14 00:56:44;;;;;;;16.13;9.45;;;14.70;99.90;;;15.01;82.80;101668.44;5053430;28;20041;-66
2021/11/14 00:59:13;;;;;;;16.45;10.43;;;14.70;99.90;;;15.08;82.74;101685.22;5052727;28;20117;-66
2021/11/14 01:01:43;;;;;;;13.63;9.45;;;14.70;99.90;;;15.03;82.64;101673.75;5053355;28;20040;-66
2021/11/14 01:04:12;;;;;;;15.55;9.48;;;14.70;99.90;;;15.10;82.67;101676.34;5053375;28;20041;-66
2021/11/14 01:06:40;;;;;;;15.50;10.73;;;14.70;99.90;;;14.76;82.50;101628.72;5052843;28;20379;-66
2021/11/14 01:09:09;;;;;;;15.27;9.35;;;14.80;99.90;;;15.05;82.74;101678.16;5051711;28;20045;-66
2021/11/14 01:11:38;;;;;;;16.15;9.80;;;14.70;99.90;;;14.86;82.70;101657.94;5051713;28;20057;-66
2021/11/14 01:14:08;;;;;;;;;;;14.70;99.90;;;12.90;82.35;101318.13;5053211;28;20064;-66
2021/11/14 01:16:36;;;;;;;15.30;10.10;;;14.70;99.90;;;15.01;82.88;101695.09;5052694;28;20482;-66
2021/11/14 01:19:06;;;;;;;15.23;10.23;;;14.70;99.90;;;14.92;82.87;101678.28;5052563;28;20051;-66
2021/11/14 01:21:35;;;;;;;16.25;10.65;;;14.60;99.90;;;15.01;82.53;101691.53;5052978;28;20037;-66
2021/11/14 01:24:04;;;;;;;16.63;9.90;;;14.70;99.90;;;15.04;82.60;101700.38;5051630;28;20071;-66
2021/11/14 01:26:32;;;;;;;16.80;10.18;;;14.70;99.90;;;15.03;82.58;101701.28;5052567;28;20091;-66
2021/11/14 01:29:01;;;;;;;16.08;9.90;;;14.70;99.90;;;15.01;82.63;101702.19;5051573;28;20381;-66
2021/11/14 01:31:29;;;;;;;14.85;10.43;;;14.60;99.90;;;14.94;82.71;101688.03;5052351;28;20464;-66
2021/11/14 01:33:58;;;;;;;13.48;9.63;;;14.60;99.90;;;14.66;82.67;101654.56;5052545;28;20509;-66
2021/11/14 01:36:32;;;;;;;14.55;10.15;;;14.60;99.90;;;15.01;82.55;101707.50;5052530;28;20045;-66
2021/11/14 01:39:00;;;;;;;15.90;10.10;;;14.60;99.90;;;14.92;82.64;101708.50;5052475;28;20041;-66
2021/11/14 01:41:29;;;;;;;15.48;9.57;;;14.70;99.90;;;15.02;82.66;101715.47;5054255;28;20420;-66
2021/11/14 01:43:58;;;;;;;14.70;10.27;;;14.60;99.90;;;14.90;82.35;101688.97;5056600;28;20056;-66
2021/11/14 01:46:26;;;;;;;17.92;10.73;;;14.70;99.90;;;14.70;82.62;101658.97;5056238;28;20069;-66
2021/11/14 01:48:56;;;;;;;12.68;10.23;;;14.70;99.90;;;15.02;82.32;101706.63;5056216;28;20040;-66
2021/11/14 01:51:25;;;;;;;18.92;11.38;;;14.70;99.90;;;14.81;82.37;101691.69;5055119;28;20083;-66
2021/11/14 01:53:55;;;;;;;17.35;11.10;;;14.60;99.90;;;14.51;82.30;101625.41;5056382;28;20496;-66
2021/11/14 01:56:24;;;;;;;17.20;11.23;;;14.60;99.90;;;15.03;82.20;101721.69;5056642;28;20041;-66
2021/11/14 01:58:53;;;;;;;15.63;10.88;;;14.60;99.90;;;14.99;82.23;101718.19;5056304;28;20368;-66
2021/11/14 02:01:26;;;;;;;14.93;11.18;;;14.60;99.90;;;14.96;82.19;101720.88;5054863;28;20547;-65
2021/11/14 02:04:01;;;;;;;14.73;11.23;;;14.60;99.90;;;15.00;82.25;101721.75;5056235;28;20103;-66
2021/11/14 02:06:31;;;;;;;14.23;11.18;;;14.60;99.90;;;14.93;82.31;101715.56;5055206;28;20494;-66
2021/11/14 02:09:04;;;;;;;15.90;11.13;;;14.60;99.90;;;15.00;82.60;101725.28;5055876;28;20048;-66
2021/11/14 02:11:33;;;;;;;16.50;11.55;;;14.60;99.90;;;14.93;82.30;101720.91;5056137;28;20049;-66
2021/11/14 02:14:02;;;;;;;15.48;11.48;;;14.60;99.90;;;15.02;82.43;101736.81;5055713;28;20129;-66
2021/11/14 02:16:31;;;;;;;17.77;12.40;;;14.60;99.90;;;15.00;82.34;101741.25;5055959;28;20494;-66
2021/11/14 02:19:00;;;;;;;17.23;12.50;;;14.60;99.90;;;15.02;82.42;101741.28;5071272;28;20045;-66
2021/11/14 02:21:30;;;;;;;19.13;13.25;;;14.70;99.90;;;14.87;82.39;101717.41;5055486;28;20072;-67
2021/11/14 02:24:00;;;;;;;17.58;13.30;;;14.60;99.90;;;14.97;82.34;101727.97;5055485;28;20102;-66
2021/11/14 02:26:28;;;;;;;19.10;12.95;;;14.60;99.90;;;14.90;82.40;101718.28;5055448;28;20482;-66
2021/11/14 02:28:57;;;;;;;18.92;13.32;;;14.70;99.90;;;15.02;82.34;101750.13;5055443;28;20095;-66
2021/11/14 02:31:27;;;;;;;20.58;14.43;;;14.70;99.90;;;14.94;82.35;101741.31;5055373;28;20041;-66
2021/11/14 02:33:57;;;;;;;20.52;15.35;;;14.70;99.90;;;15.02;82.33;101757.25;5071134;28;20053;-66
2021/11/14 02:36:27;;;;;;;20.35;14.55;;;14.70;99.90;;;15.03;81.88;101759.00;5055412;28;20401;-66
2021/11/14 02:38:57;;;;;;;22.08;14.68;;;14.70;99.90;;;15.02;81.95;101776.78;5055508;28;20040;-66
2021/11/14 02:41:26;;;;;;;22.15;14.25;;;14.70;99.90;;;14.93;81.99;101770.63;5070631;28;20080;-66
2021/11/14 02:43:57;;;;;;;20.50;14.27;;;14.70;99.90;;;14.79;81.81;101730.78;5055536;28;20057;-66
2021/11/14 02:46:27;;;;;;;18.77;14.18;;;14.70;99.90;;;14.89;81.64;101750.25;5055174;28;20041;-66
2021/11/14 02:48:55;;;;;;;21.05;14.63;;;14.70;99.90;;;15.01;81.94;101771.47;5055378;28;20448;-66
2021/11/14 02:51:33;;;;;;;21.25;15.20;;;14.80;99.90;;;14.96;82.22;101781.28;5055210;28;20075;-66
2021/11/14 02:54:05;;;;;;;20.95;15.70;;;14.70;99.90;;;14.92;82.51;101777.75;5055031;28;20044;-66
2021/11/14 02:56:34;;;;;;;19.60;15.00;;;14.60;99.90;;;14.86;82.92;101785.81;5053958;28;20495;-66
2021/11/14 02:59:03;;;;;;;21.77;14.57;;;14.60;99.90;;;14.75;82.74;101766.31;5055197;28;20040;-66
2021/11/14 03:01:38;;;;;;;20.92;15.57;;;14.60;99.90;;;14.76;82.80;101765.44;5054717;28;20048;-66
2021/11/14 03:04:06;;;;;;;20.25;14.30;;;14.60;99.90;;;14.72;82.77;101770.78;5054866;28;20037;-66
2021/11/14 03:06:35;;;;;;;21.85;15.63;;;14.60;99.90;;;14.91;82.94;101791.06;5054734;28;20095;-66
2021/11/14 03:09:06;;;;;;;22.77;15.38;;;14.60;99.90;;;14.78;83.07;101774.31;5054971;28;20045;-66
2021/11/14 03:11:35;;;;;;;21.52;15.48;;;14.60;99.90;;;14.89;83.26;101793.75;5054718;28;20110;-67
2021/11/14 03:14:04;;;;;;;24.17;16.17;;;14.60;99.90;;;14.91;83.03;101797.28;5054644;28;20073;-66
2021/11/14 03:16:33;;;;;;;22.33;15.10;;;14.60;99.90;;;14.92;83.18;101799.06;5054734;28;20044;-66
2021/11/14 03:19:03;;;;;;;25.30;16.98;;;14.60;99.90;;;14.87;83.27;101789.31;5054495;28;20075;-66
2021/11/14 03:21:32;;;;;;;23.65;16.75;;;14.60;99.90;;;14.75;83.29;101768.97;5054337;28;20067;-66
2021/11/14 03:24:01;;;;;;;24.13;17.25;;;14.60;99.90;;;14.95;83.59;101795.50;5054602;28;20041;-66
2021/11/14 03:26:31;;;;;;;28.55;17.90;;;14.60;99.90;;;14.75;83.38;101773.47;5053382;28;20506;-66
2021/11/14 03:29:00;;;;;;;22.58;16.80;;;14.60;99.90;;;14.67;83.56;101756.63;5054411;28;20564;-66
2021/11/14 03:31:29;;;;;;;23.98;17.10;;;14.60;99.90;;;14.87;83.92;101807.97;5054313;28;20512;-66
2021/11/14 03:33:59;;;;;;;26.27;17.60;;;14.60;99.90;;;14.80;83.93;101806.25;5054455;28;20119;-66
2021/11/14 03:36:29;;;;;;;28.67;18.13;;;14.60;99.90;;;14.75;84.19;101816.94;5054186;28;20064;-66
2021/11/14 03:39:03;;;;;;;25.30;18.52;;;14.50;99.90;;;14.83;84.28;101812.44;5054157;28;20045;-66
2021/11/14 03:41:36;;;;;;;27.52;18.42;;;14.50;99.90;;;14.64;84.41;101793.91;5054027;28;20033;-66
2021/11/14 03:44:07;;;;;;;22.73;17.75;;;14.50;99.90;;;14.55;84.89;101810.84;5053901;28;20064;-66
2021/11/14 03:46:36;;;;;;;27.70;19.75;;;14.30;99.90;;;14.13;86.61;101813.69;5054383;28;20098;-66
2021/11/14 03:49:05;;;;;;;27.60;19.80;;;13.90;99.90;;;14.26;87.11;101824.28;5052916;28;20044;-66
2021/11/14 03:51:34;;;;;;;28.38;19.90;;;14.00;99.90;;;14.41;86.44;101821.56;5053882;28;20051;-66
2021/11/14 03:54:03;;;;;;;29.38;21.00;;;14.10;99.90;;;14.42;86.43;101820.66;5053793;28;20044;-67
2021/11/14 03:56:34;;;;;;;29.63;20.90;;;14.10;99.90;;;14.44;86.43;101821.53;5054004;28;20394;-66
2021/11/14 03:59:03;;;;;;;27.88;20.23;;;14.20;99.90;;;14.53;86.46;101831.28;5054075;28;20387;-66
2021/11/14 04:01:32;;;;;;;29.70;20.80;;;14.20;99.90;;;14.48;86.30;101834.88;5053558;28;20486;-66
2021/11/14 04:04:02;;;;;;;29.73;21.23;;;14.20;99.90;;;14.36;86.15;101802.06;5053087;28;20407;-66
2021/11/14 04:06:30;;;;;;;27.65;20.63;;;14.30;99.90;;;14.49;86.45;101832.19;5053654;28;20449;-66
2021/11/14 04:09:00;;;;;;;30.55;21.25;;;14.30;99.90;;;14.52;86.46;101832.16;5052600;28;20111;-66
2021/11/14 04:11:29;;;;;;;30.55;21.77;;;14.20;99.90;;;14.50;86.15;101831.28;5053855;28;20187;-66
2021/11/14 04:13:59;;;;;;;32.78;22.40;;;14.30;99.90;;;14.52;86.06;101833.97;5053697;28;20103;-66
2021/11/14 04:16:28;;;;;;;30.38;22.23;;;14.30;99.90;;;14.56;86.53;101846.34;5053813;28;20402;-66
2021/11/14 04:18:56;;;;;;;33.92;21.88;;;14.30;99.90;;;14.57;86.38;101849.00;5053720;28;20071;-66
2021/11/14 04:21:26;;;;;;;32.08;21.40;;;14.30;99.90;;;14.59;86.14;101846.34;5053268;28;20449;-66
2021/11/14 04:23:55;;;;;;;35.15;23.58;;;14.30;99.90;;;14.35;86.47;101816.28;5053549;28;20414;-66
2021/11/14 04:26:24;;;;;;;30.88;21.88;;;14.30;99.90;;;14.45;86.17;101833.09;5053289;28;20116;-66
2021/11/14 04:28:52;;;;;;;32.08;22.90;;;14.30;99.90;;;14.45;86.02;101833.09;5068960;28;20395;-66
2021/11/14 04:31:22;;;;;;;34.53;24.15;;;14.30;99.90;;;14.34;85.78;101824.28;5053174;28;20048;-66
2021/11/14 04:33:51;;;;;;;29.35;22.15;;;14.30;99.90;;;14.61;85.94;101864.09;5052391;28;20048;-67
2021/11/14 04:36:19;;;;;;;27.95;22.00;;;14.30;99.90;;;14.34;86.12;101814.50;5052174;28;20045;-66
2021/11/14 04:38:49;;;;;;;30.92;22.52;;;14.30;99.90;;;14.61;86.08;101866.75;5053082;28;20490;-66
2021/11/14 04:41:18;;;;;;;27.30;21.55;;;14.30;99.90;;;14.36;85.84;101828.69;5053358;28;20044;-66
2021/11/14 04:43:46;;;;;;;32.40;22.85;;;14.30;99.90;;;14.32;85.83;101818.06;5052975;28;20081;-66
2021/11/14 04:46:15;;;;;;;33.55;22.83;;;14.30;99.90;;;14.62;85.81;101868.50;5053536;28;20107;-66
2021/11/14 04:48:45;;;;;;;30.20;22.70;;;14.40;99.90;;;14.58;86.12;101869.41;5052979;28;20486;-66
2021/11/14 04:51:13;;;;;;;30.23;21.60;;;14.40;99.90;;;14.59;85.91;101863.22;5052989;28;20087;-66
2021/11/14 04:53:41;;;;;;;32.08;22.17;;;14.30;99.90;;;14.68;85.78;101875.56;5053196;28;20331;-66
2021/11/14 04:56:10;;;;;;;30.35;22.80;;;14.40;99.90;;;14.72;85.90;101890.66;5052917;28;20083;-66
2021/11/14 04:58:39;;;;;;;31.65;23.27;;;14.40;99.90;;;14.59;85.50;101871.19;5053130;28;20131;-66
2021/11/14 05:01:07;;;;;;;30.85;21.85;;;14.40;99.90;;;14.69;85.63;101894.19;5052836;28;20040;-66
2021/11/14 05:03:36;;;;;;;32.08;22.02;;;14.40;99.90;;;14.68;85.79;101883.56;5053133;28;20037;-66
2021/11/14 05:06:09;;;;;;;35.55;23.23;;;14.40;99.90;;;14.59;85.59;101873.84;5052823;28;20041;-66
2021/11/14 05:08:37;;;;;;;32.78;23.65;;;14.40;99.90;;;14.61;85.67;101896.03;5053043;28;20429;-66
2021/11/14 05:11:06;;;;;;;33.78;23.02;;;14.40;99.90;;;14.35;85.53;101845.56;5052781;28;20545;-66
2021/11/14 05:13:35;;;;;;;34.05;22.92;;;14.40;99.90;;;14.64;85.69;101890.69;5052681;28;20040;-66
2021/11/14 05:16:04;;;;;;;36.03;23.90;;;14.40;99.90;;;14.31;86.02;101888.16;5056307;28;20519;-66
2021/11/14 05:18:33;;;;;;;29.60;23.20;;;14.30;99.90;;;14.32;85.96;101866.00;5056835;28;20055;-66
2021/11/14 05:21:01;;;;;;;33.35;24.92;;;14.20;99.90;;;14.52;85.95;101897.84;5056592;28;20465;-66
2021/11/14 05:23:31;;;;;;;35.40;24.40;;;14.30;99.90;;;14.51;85.88;101901.41;5056882;28;20049;-66
2021/11/14 05:25:59;;;;;;;35.05;25.60;;;14.30;99.90;;;14.51;85.84;101888.97;5056908;28;20045;-66
2021/11/14 05:28:28;;;;;;;37.72;25.42;;;14.30;99.90;;;14.50;85.60;101903.16;5056846;28;20107;-66
2021/11/14 05:30:57;;;;;;;32.15;24.67;;;14.20;99.90;;;14.48;85.52;101912.94;5056653;28;20037;-66
2021/11/14 05:33:25;;;;;;;35.28;25.05;;;14.20;99.90;;;14.47;85.59;101905.84;5056526;28;20036;-66
2021/11/14 05:35:54;;;;;;;35.25;25.27;;;14.20;99.90;;;14.34;85.44;101914.78;5056639;28;20052;-66
2021/11/14 05:38:23;;;;;;;37.97;24.67;;;14.20;99.90;;;14.36;85.35;101908.53;5056418;28;20457;-66
2021/11/14 05:40:53;;;;;;;36.33;25.08;;;14.20;99.90;;;14.38;85.38;101928.06;5056369;28;20055;-66
2021/11/14 05:43:21;;;;;;;36.65;25.17;;;14.20;99.90;;;14.31;85.38;101920.09;5056684;28;20057;-66
2021/11/14 05:45:50;;;;;;;31.80;23.73;;;14.10;99.90;;;14.17;85.16;101885.50;5055368;28;20437;-66
2021/11/14 05:48:18;;;;;;;33.85;24.33;;;14.20;99.90;;;14.34;85.48;101915.63;5056474;28;20053;-66
2021/11/14 05:50:47;;;;;;;34.75;24.67;;;14.10;99.90;;;14.38;85.47;101924.53;5056744;28;20068;-66
2021/11/14 05:53:15;;;;;;;32.78;23.70;;;14.10;99.90;;;12.58;85.03;101602.31;5056244;28;20538;-66
2021/11/14 05:55:44;;;;;;;33.72;23.58;;;14.20;99.90;;;14.30;85.14;101918.34;5056167;28;20043;-66
2021/11/14 05:58:17;;;;;;;30.60;22.25;;;14.20;99.90;;;14.41;85.04;101932.50;5056291;28;20413;-66
2021/11/14 06:00:52;;;;;;;33.42;23.02;;;14.20;99.90;;;14.46;85.14;101944.00;5056064;28;20048;-66
2021/11/14 06:03:31;;;;;;;30.67;23.20;;;14.20;99.90;;;14.48;85.05;101944.88;5056163;28;20136;-66
2021/11/14 06:06:00;;;;;;;31.90;22.60;;;14.20;99.90;;;14.52;84.72;101956.44;5055995;28;20045;-66
2021/11/14 06:08:28;;;;;;;30.60;21.63;;;14.30;99.90;;;14.50;84.58;101951.09;5055902;28;20394;-66
2021/11/14 06:10:58;;;;;;;29.58;21.48;;;14.20;99.90;;;14.22;84.78;101942.28;5056003;28;20128;-66
2021/11/14 06:13:32;;;;;;;32.35;21.67;;;14.10;99.90;;;14.30;84.75;101935.16;5055734;28;20067;-66
2021/11/14 06:16:01;;;;;;;29.27;20.95;;;14.10;99.90;;;14.34;84.67;101952.91;5071613;28;20053;-66
2021/11/14 06:18:30;;;;;;;35.03;22.70;;;14.10;99.90;;;14.38;84.61;101965.31;5056064;28;20073;-66
2021/11/14 06:21:00;;;;;;;32.60;22.08;;;14.10;99.90;;;14.28;84.51;101946.72;5071496;28;20490;-66
2021/11/14 06:23:30;;;;;;;30.10;22.10;;;14.10;99.90;;;14.13;84.49;101926.31;5055918;28;20098;-66
2021/11/14 06:25:59;;;;;;;29.40;20.98;;;14.10;99.90;;;14.37;84.34;101963.56;5055845;28;20136;-66
2021/11/14 06:28:29;;;;;;;29.13;22.23;;;14.10;99.90;;;14.34;84.34;101968.00;5055189;28;20064;-66
2021/11/14 06:30:58;;;;;;;28.83;21.50;;;14.10;99.90;;;14.36;84.43;101982.22;5054476;28;20140;-66
2021/11/14 06:33:27;;;;;;;28.05;20.65;;;14.10;99.90;;;14.26;84.21;101986.63;5055526;28;20049;-66
2021/11/14 06:35:56;;;;;;;28.20;21.15;;;14.00;99.90;;;14.29;84.19;101991.97;5055580;28;20083;-66
2021/11/14 06:38:24;;;;;;;30.83;22.52;;;14.10;99.90;;;14.16;84.11;101989.28;5055306;28;20037;-66
2021/11/14 06:40:53;;;;;;;32.28;23.17;;;14.00;99.90;;;14.18;84.20;101988.41;5071005;28;20048;-66
2021/11/14 06:43:22;;;;;;;27.98;22.33;;;14.00;99.90;;;14.22;84.06;101998.16;5055118;28;20132;-66
2021/11/14 06:45:51;;;;;;;30.10;23.60;;;14.00;99.90;;;14.14;83.72;101999.94;5055092;28;20403;-66
2021/11/14 06:48:20;;;;;;;31.63;23.60;;;14.00;99.90;;;14.18;83.81;102007.03;5054968;28;20041;-66
2021/11/14 06:50:49;;;;;;;32.10;22.50;;;14.00;99.90;;;14.15;83.81;102008.81;5055056;28;20090;-66
2021/11/14 06:53:17;;;;;;;31.13;23.15;;;14.00;99.90;;;14.19;83.74;102010.56;5055622;28;20041;-66
2021/11/14 06:55:46;;;;;;;36.70;24.90;;;14.00;99.90;;;14.13;83.57;102015.91;5054976;28;20049;-67
2021/11/14 06:58:15;;;;;;;35.67;24.35;;;13.90;99.90;;;13.96;83.66;102012.34;5055458;28;20036;-66
2021/11/14 07:00:43;;;;;;;36.17;26.15;;;13.80;99.90;;;13.99;83.68;102023.91;5053834;28;20049;-66
2021/11/14 07:03:14;;;;;;;32.95;25.35;;;13.80;99.90;;;13.94;84.15;102017.66;5054701;28;20088;-66
2021/11/14 07:05:43;;;;;;;38.33;27.52;;;13.80;99.90;;;13.88;83.84;102030.97;5054853;28;20048;-66
2021/11/14 07:08:11;;;;;;;37.97;26.25;;;13.80;99.90;;;13.91;83.96;102030.09;5054960;28;20090;-66
2021/11/14 07:10:40;;;;;;;36.67;26.48;;;13.70;99.90;;;13.91;83.92;102043.41;5054433;28;20053;-66
2021/11/14 07:13:08;;;;;;;38.00;27.40;;;13.70;99.90;;;13.73;83.82;102011.44;5054646;28;20041;-66
2021/11/14 07:15:37;;;;;;;39.70;27.05;;;13.70;99.90;;;13.82;84.12;102033.63;5054814;28;20049;-67
2021/11/14 07:18:06;;;;;;;40.88;28.25;;;13.70;99.90;;;13.80;83.83;102059.31;5054803;28;20083;-66
2021/11/14 07:20:36;;;;;;;43.70;27.50;;;13.70;99.90;;;13.70;84.05;102038.06;5054819;28;20040;-66
2021/11/14 07:23:05;;;;;;;40.67;27.17;;;13.70;99.90;;;13.86;83.97;102063.78;5054861;28;20036;-66
2021/11/14 07:25:33;;;;;;;40.17;27.42;;;13.70;99.90;;;13.66;84.15;102041.59;5053446;28;20379;-66
2021/11/14 07:28:02;;;;;;;42.45;28.23;;;13.70;99.90;;;13.02;83.94;101936.88;5054596;28;20512;-66
2021/11/14 07:30:32;;;;;;;39.38;27.83;;;13.60;99.90;;;13.82;84.05;102081.50;5054606;28;20135;-66
2021/11/14 07:33:03;;;;;;;38.65;27.52;;;13.60;99.90;;;13.62;84.09;102037.16;5053200;28;20516;-66
2021/11/14 07:35:31;;;;;;;;;;;13.60;99.90;;;13.82;84.20;102076.16;5054503;28;20044;-66
2021/11/14 07:38:02;;;;;;;41.10;29.35;;;13.70;99.90;;;13.68;84.65;102093.00;5054078;28;20293;-66
2021/11/14 07:40:31;;;;;;;44.58;29.98;;;13.50;99.90;;;13.65;84.48;102079.69;5053958;28;20041;-66
2021/11/14 07:43:00;;;;;;;45.63;29.73;;;13.50;99.90;;;13.67;84.59;102099.19;5053903;28;20045;-66
2021/11/14 07:45:30;;;;;;;42.58;29.15;;;13.50;99.90;;;13.47;85.07;102084.06;5052932;28;20052;-66
2021/11/14 07:47:59;;;;;;;51.27;31.90;;;13.40;99.90;;;13.43;85.11;102084.94;5054311;28;20120;-66
2021/11/14 07:50:29;;;;;;;43.72;30.05;;;13.40;99.90;;;13.56;85.64;102108.03;5054163;28;20091;-66
2021/11/14 07:53:02;;;;;;;45.67;30.63;;;13.30;99.90;;;13.37;85.70;102079.63;5052953;28;20474;-66
2021/11/14 07:55:31;;;;;;;46.78;31.35;;;13.40;99.90;;;13.46;85.50;102100.91;5054427;28;20061;-66
2021/11/14 07:58:00;;;;;;;48.47;31.23;;;13.30;99.90;;;13.55;85.74;102122.19;5053790;28;20065;-66
2021/11/14 08:00:28;;;;;;;49.70;32.22;;;13.30;99.90;;;13.48;85.96;102122.19;5053626;28;20041;-66
2021/11/14 08:02:58;;;;;;;50.50;32.78;;;13.30;99.90;;;13.25;86.17;102097.28;5053668;28;20040;-66
2021/11/14 08:05:28;;;;;;;49.15;32.78;;;13.30;99.90;;;13.37;86.23;102116.84;5053559;28;20502;-66
2021/11/14 08:07:57;;;;;;;49.13;32.88;;;13.20;99.90;;;13.39;86.14;102119.50;5053603;28;20052;-66
2021/11/14 08:10:28;;;;;;;47.80;31.40;;;13.20;99.90;;;13.41;86.22;102139.84;5053496;28;20033;-66
2021/11/14 08:12:57;;;;;;;51.22;32.70;;;13.20;99.90;;;13.40;86.15;102139.84;5053760;28;20146;-66
2021/11/14 08:15:26;;;;;;;53.42;33.38;;;13.20;99.90;;;12.85;85.82;102060.75;5053685;28;20124;-66
2021/11/14 08:17:55;;;;;;;46.15;30.85;;;13.10;99.90;;;11.43;85.39;101827.28;5053895;28;20044;-66
2021/11/14 08:20:24;;;;;;;48.28;31.15;;;13.10;99.90;;;13.03;85.77;102130.81;5068911;28;20083;-66
2021/11/14 08:22:59;;;;;;;47.28;30.33;;;13.00;99.90;;;12.74;85.56;102120.88;5053763;28;20483;-66
2021/11/14 08:25:30;;;;;;;52.05;32.33;;;12.90;99.90;;;12.81;85.88;102150.13;5053572;28;20044;-66
2021/11/14 08:27:58;;;;;;;48.35;30.40;;;12.80;99.90;;;12.48;86.18;102132.19;5052278;28;20053;-65
2021/11/14 08:30:27;;;;;;;50.17;31.48;;;12.50;99.90;;;12.40;86.49;102103.81;5053110;28;20479;-64
2021/11/14 08:32:56;;;;;;;53.13;32.83;;;12.50;99.90;;;12.55;86.39;102103.91;5068632;28;20049;-64
2021/11/14 08:35:25;;;;;;;49.90;31.25;;;12.60;99.90;;;12.85;86.10;102151.94;5053088;28;20084;-64
2021/11/14 08:37:57;;;;;;;49.88;32.05;;;12.60;99.90;;;12.90;86.09;102150.19;5052971;28;20096;-64
2021/11/14 08:40:29;;;;;;;51.00;32.75;;;12.70;99.90;;;12.92;85.82;102140.47;5052940;28;20044;-66
2021/11/14 08:42:59;;;;;;;51.72;32.28;;;12.80;99.90;;;12.81;85.81;102112.06;5051607;28;20057;-65
2021/11/14 08:45:30;;;;;;;51.88;33.28;;;12.90;99.90;;;12.72;85.83;102118.19;5053152;28;20045;-65
2021/11/14 08:47:59;;;;;;;52.72;32.75;;;12.80;99.90;;;12.75;86.04;102147.44;5053027;28;20449;-66
2021/11/14 08:50:34;;;;;;;53.38;33.40;;;12.80;99.90;;;12.67;86.66;102138.50;5051994;28;20090;-66
2021/11/14 08:53:03;;;;;;;53.33;34.85;;;12.70;99.90;;;12.90;86.81;102157.25;5052986;28;20040;-67
2021/11/14 08:55:33;;;;;;;53.58;35.20;;;12.70;99.90;;;12.93;86.69;102160.81;5053210;28;20041;-67
2021/11/14 08:58:22;;;;;;;54.83;34.10;;;12.70;99.90;;;12.97;86.49;102148.47;5051752;28;20041;-66
2021/11/14 09:00:53;;;;;;;54.53;35.33;;;12.90;99.90;;;13.01;86.53;102161.75;5052752;28;20296;-67
2021/11/14 09:03:22;;;;;;;56.92;36.55;;;12.90;99.90;;;12.97;86.71;102162.63;5052769;28;20128;-66
2021/11/14 09:05:51;;;;;;;58.33;36.85;;;12.80;99.90;;;12.92;86.82;102172.34;5051732;28;20499;-67
2021/11/14 09:08:20;;;;;;;55.30;36.63;;;12.70;99.90;;;13.04;86.75;102175.09;5052785;28;20044;-66
2021/11/14 09:10:51;;;;;;;55.53;35.72;;;12.80;99.90;;;12.86;87.14;102174.03;5052684;28;20041;-66
2021/11/14 09:13:20;;;;;;;57.58;36.25;;;12.70;99.90;;;12.86;87.18;102159.00;5053038;28;20041;-67
2021/11/14 09:15:49;;;;;;;57.55;37.13;;;12.80;99.90;;;12.94;86.92;102170.56;5052964;28;20123;-66
2021/11/14 09:18:18;;;;;;;57.42;37.25;;;12.80;99.90;;;13.08;86.92;102178.66;5052543;28;20375;-67
2021/11/14 09:20:47;;;;;;;55.00;34.67;;;12.90;99.90;;;13.02;86.74;102179.50;5052579;28;20041;-64
2021/11/14 09:23:17;;;;;;;62.05;36.83;;;12.80;99.90;;;13.06;86.52;102191.06;5051428;28;20103;-66
2021/11/14 09:25:46;;;;;;;58.10;36.78;;;12.90;99.90;;;12.38;86.49;102056.03;5052794;28;20102;-66
2021/11/14 09:28:18;;;;;;;57.75;36.97;;;12.90;99.90;;;13.06;86.37;102180.44;5051437;28;20053;-67
2021/11/14 09:30:50;;;;;;;59.30;37.17;;;13.00;99.90;;;13.33;86.19;102194.78;5052448;28;20043;-66
2021/11/14 09:33:20;;;;;;;55.13;36.08;;;13.10;99.90;;;13.36;85.82;102199.19;5052366;28;20041;-64
2021/11/14 09:35:50;;;;;;;57.22;35.92;;;13.20;99.90;;;13.20;85.82;102197.34;5051445;28;20482;-65
2021/11/14 09:38:19;;;;;;;58.53;37.25;;;13.10;99.90;;;13.09;85.82;102210.56;5053050;28;20041;-65
2021/11/14 09:40:47;;;;;;;54.75;35.83;;;13.00;99.90;;;13.00;86.35;102177.69;5052419;28;20045;-66
2021/11/14 09:43:19;;;;;;;58.42;36.28;;;13.00;99.90;;;12.55;86.49;102126.03;5052311;28;20151;-66
2021/11/14 09:45:50;;;;;;;56.30;36.58;;;12.90;99.90;;;12.84;86.57;102187.31;5052730;28;20041;-66
2021/11/14 09:48:20;;;;;;;56.95;36.72;;;12.90;99.90;;;12.44;87.39;102185.22;5052359;28;20099;-70
2021/11/14 09:50:49;;;;;;;57.50;35.70;;;12.60;99.90;;;12.49;88.33;102215.31;5052317;28;20040;-65
2021/11/14 09:53:18;;;;;;;55.75;37.00;;;12.50;99.90;;;12.62;89.25;102222.53;5051289;28;20391;-70
2021/11/14 09:55:47;;;;;;;55.20;35.92;;;12.40;99.90;;;12.58;88.89;102215.44;5052304;28;20041;-66
2021/11/14 09:58:17;;;;;;;59.60;36.95;;;12.50;99.90;;;12.49;88.78;102233.91;5052290;28;20048;-67
2021/11/14 10:00:46;;;;;;;56.92;35.00;;;12.40;99.90;;;12.60;89.19;102240.22;5052314;28;20041;-65
2021/11/14 10:03:15;;;;;;;57.13;36.22;;;12.40;99.90;;;12.55;88.85;102221.59;5070828;28;20087;-66
2021/11/14 10:05:44;;;;;;;57.97;36.95;;;12.40;99.90;;;12.50;89.29;102238.34;5055711;28;20041;-64
2021/11/14 10:08:12;;;;;;;63.97;39.00;;;12.40;99.90;;;12.45;89.62;102229.44;5056255;28;20091;-66
2021/11/14 10:10:48;;;;;;;60.58;38.03;;;12.40;99.90;;;12.32;89.79;102195.72;5056110;28;20453;-66